createdAt,value
2018-08-06T00:02:01.435Z,1.53
2018-08-06T00:04:29.292Z,1.87
2018-08-06T00:06:56.838Z,1.60
2018-08-06T00:09:24.264Z,1.30
2018-08-06T00:11:51.969Z,1.47
2018-08-06T00:14:19.333Z,1.40
2018-08-06T00:16:46.782Z,1.50
2018-08-06T00:19:14.161Z,1.73
2018-08-06T00:21:41.606Z,1.60
2018-08-06T00:24:09.022Z,1.43
2018-08-06T00:26:36.441Z,1.30
2018-08-06T00:29:03.974Z,1.73
2018-08-06T00:31:31.493Z,1.80
2018-08-06T00:33:59.040Z,1.40
2018-08-06T00:36:26.510Z,1.83
2018-08-06T00:38:53.989Z,1.70
2018-08-06T00:41:21.482Z,1.40
2018-08-06T00:43:48.958Z,2.23
2018-08-06T00:46:16.418Z,1.67
2018-08-06T00:48:43.919Z,1.80
2018-08-06T00:51:11.432Z,1.87
2018-08-06T00:53:38.835Z,1.60
2018-08-06T00:56:06.243Z,1.23
2018-08-06T00:58:33.678Z,2.07
2018-08-06T01:01:01.247Z,1.30
2018-08-06T01:03:28.778Z,1.60
2018-08-06T01:05:56.269Z,2.00
2018-08-06T01:08:23.645Z,1.70
2018-08-06T01:10:51.239Z,1.90
2018-08-06T01:13:18.687Z,1.40
2018-08-06T01:15:46.178Z,2.00
2018-08-06T01:18:13.667Z,1.33
2018-08-06T01:20:41.157Z,1.43
2018-08-06T01:23:08.637Z,1.50
2018-08-06T01:25:36.159Z,1.53
2018-08-06T01:28:03.834Z,1.50
2018-08-06T01:30:32.004Z,1.63
2018-08-06T01:32:59.805Z,1.83
2018-08-06T01:35:27.217Z,1.40
2018-08-06T01:37:54.638Z,1.50
2018-08-06T01:40:22.122Z,1.50
2018-08-06T01:42:49.605Z,1.90
2018-08-06T01:45:17.067Z,1.43
2018-08-06T01:47:44.908Z,2.20
2018-08-06T01:50:13.375Z,1.90
2018-08-06T01:52:41.328Z,1.70
2018-08-06T01:55:08.909Z,1.97
2018-08-06T01:57:36.422Z,1.80
2018-08-06T02:00:06.898Z,1.40
2018-08-06T02:02:34.423Z,1.27
2018-08-06T02:05:01.945Z,1.60
2018-08-06T02:07:29.582Z,1.50
2018-08-06T02:09:57.074Z,1.90
2018-08-06T02:12:24.528Z,1.80
2018-08-06T02:14:52.013Z,2.07
2018-08-06T02:17:19.469Z,1.40
2018-08-06T02:19:47.163Z,1.77
2018-08-06T02:22:14.666Z,1.30
2018-08-06T02:24:42.229Z,1.67
2018-08-06T02:27:09.721Z,1.60
2018-08-06T02:29:37.323Z,2.40
2018-08-06T02:32:05.455Z,1.70
2018-08-06T02:34:33.072Z,2.10
2018-08-06T02:37:00.498Z,1.80
2018-08-06T02:39:27.853Z,1.50
2018-08-06T02:41:55.337Z,1.57
2018-08-06T02:44:22.812Z,2.50
2018-08-06T02:46:50.238Z,1.90
2018-08-06T02:49:17.686Z,2.53
2018-08-06T02:51:45.136Z,2.10
2018-08-06T02:54:12.631Z,1.67
2018-08-06T02:56:40.114Z,1.83
2018-08-06T02:59:07.627Z,1.87
2018-08-06T03:01:35.155Z,1.90
2018-08-06T03:04:02.633Z,1.90
2018-08-06T03:06:30.242Z,1.77
2018-08-06T03:08:57.735Z,1.80
2018-08-06T03:11:25.215Z,1.80
2018-08-06T03:13:52.837Z,1.80
2018-08-06T03:16:20.343Z,1.53
2018-08-06T03:18:47.741Z,2.10
2018-08-06T03:21:15.170Z,1.87
2018-08-06T03:23:42.592Z,1.87
2018-08-06T03:26:10.103Z,1.80
2018-08-06T03:28:37.628Z,1.70
2018-08-06T03:31:05.360Z,1.53
2018-08-06T03:33:32.905Z,1.63
2018-08-06T03:36:00.381Z,2.03
2018-08-06T03:38:27.996Z,1.97
2018-08-06T03:40:55.422Z,1.80
2018-08-06T03:43:22.865Z,1.63
2018-08-06T03:45:50.293Z,1.70
2018-08-06T03:48:17.853Z,1.87
2018-08-06T03:50:45.438Z,2.20
2018-08-06T03:53:12.883Z,2.03
2018-08-06T03:55:40.338Z,1.73
2018-08-06T03:58:07.809Z,1.93
2018-08-06T04:00:35.271Z,2.57
2018-08-06T04:03:02.776Z,2.57
2018-08-06T04:05:30.198Z,2.40
2018-08-06T04:07:57.682Z,2.10
2018-08-06T04:10:25.085Z,2.30
2018-08-06T04:12:52.663Z,2.50
2018-08-06T04:15:20.142Z,2.53
2018-08-06T04:17:47.621Z,3.57
2018-08-06T04:20:15.156Z,2.27
2018-08-06T04:22:43.091Z,2.63
2018-08-06T04:25:10.978Z,2.57
2018-08-06T04:27:38.454Z,2.77
2018-08-06T04:30:08.790Z,3.83
2018-08-06T04:32:36.244Z,3.57
2018-08-06T04:35:03.931Z,2.90
2018-08-06T04:37:31.570Z,3.20
2018-08-06T04:39:59.109Z,3.03
2018-08-06T04:42:26.517Z,2.50
2018-08-06T04:44:54.210Z,2.60
2018-08-06T04:47:21.705Z,2.97
2018-08-06T04:49:49.158Z,2.90
2018-08-06T04:52:16.614Z,2.10
2018-08-06T04:54:44.062Z,2.00
2018-08-06T04:57:11.692Z,2.50
2018-08-06T04:59:39.426Z,59.37
2018-08-06T05:02:06.877Z,19.20
2018-08-06T05:04:34.508Z,8.63
2018-08-06T05:07:02.012Z,4.40
2018-08-06T05:09:39.570Z,2.70
2018-08-06T05:12:07.177Z,2.43
2018-08-06T05:14:35.381Z,2.30
2018-08-06T05:17:03.190Z,2.53
2018-08-06T05:19:30.714Z,2.87
2018-08-06T05:21:58.170Z,2.70
2018-08-06T05:24:25.654Z,2.23
2018-08-06T05:26:53.245Z,2.13
2018-08-06T05:29:20.778Z,2.87
2018-08-06T05:31:48.225Z,2.97
2018-08-06T05:34:15.834Z,2.33
2018-08-06T05:36:43.370Z,2.17
2018-08-06T05:39:10.802Z,2.20
2018-08-06T05:41:38.232Z,2.23
2018-08-06T05:44:05.903Z,2.60
2018-08-06T05:46:33.552Z,1.90
2018-08-06T05:49:01.090Z,2.60
2018-08-06T05:51:28.595Z,2.90
2018-08-06T05:53:56.103Z,2.40
2018-08-06T05:56:23.486Z,2.03
2018-08-06T05:58:50.941Z,1.93
2018-08-06T06:01:18.645Z,2.53
2018-08-06T06:03:46.129Z,7.00
2018-08-06T06:06:13.694Z,22.97
2018-08-06T06:08:41.163Z,13.63
2018-08-06T06:11:09.070Z,5.20
2018-08-06T06:13:36.527Z,3.97
2018-08-06T06:16:04.198Z,3.33
2018-08-06T06:18:31.806Z,3.17
2018-08-06T06:20:59.263Z,2.70
2018-08-06T06:23:26.773Z,2.47
2018-08-06T06:25:54.247Z,2.90
2018-08-06T06:28:21.674Z,2.43
2018-08-06T06:30:49.293Z,2.40
2018-08-06T06:33:16.777Z,2.30
2018-08-06T06:35:44.282Z,2.47
2018-08-06T06:38:11.738Z,1.73
2018-08-06T06:40:39.314Z,1.77
2018-08-06T06:43:06.885Z,1.70
2018-08-06T06:45:34.486Z,2.23
2018-08-06T06:48:01.845Z,2.00
2018-08-06T06:50:29.434Z,2.20
2018-08-06T06:52:56.862Z,2.27
2018-08-06T06:55:24.320Z,1.70
2018-08-06T06:57:51.759Z,1.70
2018-08-06T07:00:19.193Z,2.07
2018-08-06T07:02:46.661Z,2.47
2018-08-06T07:05:14.128Z,1.50
2018-08-06T07:07:41.603Z,2.00
2018-08-06T07:10:10.584Z,1.70
2018-08-06T07:12:38.217Z,1.67
2018-08-06T07:15:08.265Z,1.97
2018-08-06T07:17:35.666Z,1.70
2018-08-06T07:20:04.177Z,1.57
2018-08-06T07:22:31.782Z,1.50
2018-08-06T07:24:59.221Z,1.97
2018-08-06T07:27:26.869Z,1.30
2018-08-06T07:29:54.483Z,1.70
2018-08-06T07:32:21.963Z,1.60
2018-08-06T07:34:49.397Z,1.30
2018-08-06T07:37:16.975Z,1.50
2018-08-06T07:39:44.418Z,1.70
2018-08-06T07:42:11.955Z,1.50
2018-08-06T07:44:39.425Z,1.10
2018-08-06T07:47:06.914Z,1.33
2018-08-06T07:49:34.645Z,1.50
2018-08-06T07:52:02.089Z,1.30
2018-08-06T07:54:29.639Z,1.47
2018-08-06T07:56:57.217Z,1.40
2018-08-06T07:59:24.931Z,1.70
2018-08-06T08:01:52.509Z,1.50
2018-08-06T08:04:20.750Z,1.50
2018-08-06T08:06:48.247Z,1.17
2018-08-06T08:09:15.723Z,1.60
2018-08-06T08:11:43.319Z,1.53
2018-08-06T08:14:10.928Z,1.40
2018-08-06T08:16:38.445Z,1.20
2018-08-06T08:19:06.010Z,1.37
2018-08-06T08:21:33.750Z,1.30
2018-08-06T08:24:01.167Z,1.50
2018-08-06T08:26:28.677Z,3.20
2018-08-06T08:28:56.634Z,4.10
2018-08-06T08:31:24.223Z,4.20
2018-08-06T08:33:51.790Z,3.07
2018-08-06T08:36:19.261Z,2.53
2018-08-06T08:38:46.743Z,3.40
2018-08-06T08:41:14.153Z,2.00
2018-08-06T08:43:41.545Z,1.93
2018-08-06T08:46:09.034Z,23.20
2018-08-06T08:48:36.501Z,17.60
2018-08-06T08:51:03.973Z,15.17
2018-08-06T08:53:31.414Z,11.10
2018-08-06T08:55:58.850Z,7.37
2018-08-06T08:58:26.363Z,4.93
2018-08-06T09:00:53.873Z,4.77
2018-08-06T09:03:21.397Z,3.40
2018-08-06T09:05:48.946Z,2.67
2018-08-06T09:08:16.410Z,2.37
2018-08-06T09:10:43.934Z,1.90
2018-08-06T09:13:11.342Z,1.93
2018-08-06T09:15:38.877Z,1.90
2018-08-06T09:18:06.403Z,2.00
2018-08-06T09:20:34.005Z,1.50
2018-08-06T09:23:01.470Z,1.70
2018-08-06T09:25:28.947Z,1.60
2018-08-06T09:27:56.435Z,1.37
2018-08-06T09:30:24.367Z,2.00
2018-08-06T09:32:53.213Z,1.83
2018-08-06T09:35:21.103Z,1.47
2018-08-06T09:37:48.620Z,1.40
2018-08-06T09:40:17.401Z,1.33
2018-08-06T09:42:45.532Z,1.77
2018-08-06T09:45:14.327Z,1.40
2018-08-06T09:47:43.366Z,1.80
2018-08-06T09:50:11.593Z,1.50
2018-08-06T09:52:39.829Z,1.20
2018-08-06T09:55:09.629Z,1.43
2018-08-06T09:57:37.203Z,1.93
2018-08-06T10:00:13.467Z,1.40
2018-08-06T10:02:41.156Z,2.03
2018-08-06T10:05:08.775Z,1.20
2018-08-06T10:07:36.217Z,1.53
2018-08-06T10:10:05.746Z,1.37
2018-08-06T10:12:33.206Z,1.70
2018-08-06T10:15:00.662Z,1.27
2018-08-06T10:17:28.145Z,1.57
2018-08-06T10:19:55.542Z,1.60
2018-08-06T10:22:22.973Z,1.50
2018-08-06T10:24:50.517Z,1.40
2018-08-06T10:27:18.001Z,1.70
2018-08-06T10:29:45.494Z,1.70
2018-08-06T10:32:12.922Z,1.27
2018-08-06T10:34:40.411Z,1.47
2018-08-06T10:37:07.853Z,1.10
2018-08-06T10:39:35.322Z,1.53
2018-08-06T10:42:02.906Z,1.10
2018-08-06T10:44:30.422Z,1.47
2018-08-06T10:46:57.935Z,1.60
2018-08-06T10:49:25.358Z,1.50
2018-08-06T10:51:52.785Z,1.47
2018-08-06T10:54:20.263Z,1.23
2018-08-06T10:56:47.769Z,1.40
2018-08-06T10:59:15.285Z,1.60
2018-08-06T11:01:43.688Z,1.30
2018-08-06T11:04:11.135Z,1.70
2018-08-06T11:06:38.570Z,1.80
2018-08-06T11:09:06.550Z,1.73
2018-08-06T11:11:34.016Z,1.97
2018-08-06T11:14:01.613Z,4.07
2018-08-06T11:16:29.117Z,3.30
2018-08-06T11:18:56.627Z,3.00
2018-08-06T11:21:24.076Z,11.13
2018-08-06T11:23:51.711Z,13.23
2018-08-06T11:26:19.234Z,11.57
2018-08-06T11:28:47.018Z,6.93
2018-08-06T11:31:14.616Z,6.30
2018-08-06T11:33:42.238Z,5.70
2018-08-06T11:36:09.853Z,4.07
2018-08-06T11:38:37.250Z,4.03
2018-08-06T11:41:05.027Z,3.27
2018-08-06T11:43:32.427Z,3.23
2018-08-06T11:46:00.142Z,3.00
2018-08-06T11:48:27.572Z,2.53
2018-08-06T11:50:55.157Z,2.37
2018-08-06T11:53:22.618Z,2.00
2018-08-06T11:55:50.072Z,2.33
2018-08-06T11:58:17.839Z,2.00
2018-08-06T12:00:45.315Z,2.23
2018-08-06T12:03:12.994Z,2.10
2018-08-06T12:05:40.418Z,2.00
2018-08-06T12:08:08.097Z,1.90
2018-08-06T12:10:35.638Z,1.93
2018-08-06T12:13:03.275Z,2.27
2018-08-06T12:15:30.892Z,2.00
2018-08-06T12:17:58.345Z,1.90
2018-08-06T12:20:25.729Z,2.00
2018-08-06T12:22:53.165Z,2.70
2018-08-06T12:25:21.815Z,2.43
2018-08-06T12:27:49.509Z,2.70
2018-08-06T12:30:18.731Z,2.57
2018-08-06T12:32:46.885Z,1.90
2018-08-06T12:35:14.922Z,2.40
2018-08-06T12:37:42.965Z,2.10
2018-08-06T12:40:12.807Z,2.50
2018-08-06T12:42:40.558Z,2.00
2018-08-06T12:45:09.183Z,2.07
2018-08-06T12:47:37.352Z,1.87
2018-08-06T12:50:06.221Z,2.13
2018-08-06T12:52:33.659Z,2.43
2018-08-06T12:55:01.376Z,1.63
2018-08-06T12:57:28.834Z,1.97
2018-08-06T12:59:56.525Z,1.80
2018-08-06T13:02:23.934Z,1.70
2018-08-06T13:04:51.329Z,2.10
2018-08-06T13:07:18.855Z,1.77
2018-08-06T13:09:46.430Z,1.93
2018-08-06T13:12:13.887Z,1.60
2018-08-06T13:14:41.804Z,2.10
2018-08-06T13:17:09.463Z,2.07
2018-08-06T13:19:37.429Z,2.30
2018-08-06T13:22:05.120Z,2.07
2018-08-06T13:24:32.611Z,1.50
2018-08-06T13:27:00.124Z,2.20
2018-08-06T13:29:27.843Z,1.80
2018-08-06T13:31:55.314Z,1.97
2018-08-06T13:34:22.767Z,2.80
2018-08-06T13:36:50.427Z,2.00
2018-08-06T13:39:17.845Z,1.97
2018-08-06T13:41:45.324Z,2.63
2018-08-06T13:44:12.784Z,2.60
2018-08-06T13:46:40.176Z,2.20
2018-08-06T13:49:07.880Z,9.73
2018-08-06T13:51:35.603Z,31.80
2018-08-06T13:54:03.157Z,8.50
2018-08-06T13:56:31.111Z,2.53
2018-08-06T13:58:58.605Z,2.80
2018-08-06T14:01:26.119Z,2.73
2018-08-06T14:03:53.915Z,2.33
2018-08-06T14:06:21.445Z,2.60
2018-08-06T14:08:49.146Z,2.43
2018-08-06T14:11:16.813Z,2.50
2018-08-06T14:13:44.266Z,2.67
2018-08-06T14:16:11.706Z,2.20
2018-08-06T14:18:39.255Z,3.17
2018-08-06T14:21:06.842Z,2.50
2018-08-06T14:23:34.315Z,3.00
2018-08-06T14:26:01.904Z,2.53
2018-08-06T14:28:29.365Z,2.53
2018-08-06T14:30:56.950Z,2.40
2018-08-06T14:33:24.477Z,2.00
2018-08-06T14:35:51.918Z,2.20
2018-08-06T14:38:19.859Z,2.73
2018-08-06T14:40:47.471Z,2.40
2018-08-06T14:43:14.955Z,2.53
2018-08-06T14:45:42.475Z,2.60
2018-08-06T14:48:09.916Z,2.60
2018-08-06T14:50:37.358Z,2.60
2018-08-06T14:53:04.802Z,2.40
2018-08-06T14:55:32.366Z,2.60
2018-08-06T14:57:59.818Z,2.90
2018-08-06T15:00:27.249Z,2.50
2018-08-06T15:02:54.677Z,2.80
2018-08-06T15:05:22.237Z,20.77
2018-08-06T15:07:49.853Z,71.70
2018-08-06T15:10:17.423Z,42.00
2018-08-06T15:12:44.986Z,23.17
2018-08-06T15:15:13.770Z,12.37
2018-08-06T15:17:41.781Z,7.27
2018-08-06T15:20:12.182Z,4.63
2018-08-06T15:22:39.742Z,4.17
2018-08-06T15:25:13.527Z,3.67
2018-08-06T15:27:41.517Z,2.77
2018-08-06T15:30:09.494Z,2.77
2018-08-06T15:32:37.377Z,2.40
2018-08-06T15:35:05.155Z,3.03
2018-08-06T15:37:32.805Z,2.20
2018-08-06T15:40:00.363Z,2.40
2018-08-06T15:42:28.049Z,2.43
2018-08-06T15:44:55.543Z,2.30
2018-08-06T15:47:23.019Z,1.97
2018-08-06T15:49:51.066Z,2.60
2018-08-06T15:52:18.635Z,2.23
2018-08-06T15:54:46.098Z,2.83
2018-08-06T15:57:13.537Z,1.90
2018-08-06T15:59:41.177Z,2.20
2018-08-06T16:02:08.756Z,2.43
2018-08-06T16:04:36.303Z,2.13
2018-08-06T16:07:04.018Z,2.10
2018-08-06T16:09:31.465Z,2.47
2018-08-06T16:11:59.109Z,1.97
2018-08-06T16:14:26.557Z,2.47
2018-08-06T16:16:54.253Z,1.90
2018-08-06T16:19:21.994Z,2.27
2018-08-06T16:21:49.678Z,1.90
2018-08-06T16:24:17.393Z,2.30
2018-08-06T16:26:45.105Z,2.40
2018-08-06T16:29:12.612Z,5.80
2018-08-06T16:31:40.444Z,11.60
2018-08-06T16:34:07.989Z,5.80
2018-08-06T16:36:35.514Z,3.33
2018-08-06T16:39:05.388Z,3.07
2018-08-06T16:41:33.246Z,2.77
2018-08-06T16:44:01.075Z,2.50
2018-08-06T16:46:28.652Z,2.50
2018-08-06T16:48:56.139Z,3.03
2018-08-06T16:51:23.706Z,2.63
2018-08-06T16:53:51.274Z,1.97
2018-08-06T16:56:18.704Z,2.03
2018-08-06T16:58:46.150Z,2.20
2018-08-06T17:01:13.847Z,2.07
2018-08-06T17:03:41.303Z,2.40
2018-08-06T17:06:09.055Z,2.13
2018-08-06T17:08:36.896Z,2.60
2018-08-06T17:11:04.496Z,2.70
2018-08-06T17:13:32.239Z,2.03
2018-08-06T17:15:59.775Z,2.40
2018-08-06T17:18:27.326Z,2.63
2018-08-06T17:20:54.780Z,2.43
2018-08-06T17:23:22.560Z,2.43
2018-08-06T17:25:50.017Z,2.63
2018-08-06T17:28:17.454Z,2.30
2018-08-06T17:30:44.942Z,2.37
2018-08-06T17:33:12.413Z,2.40
2018-08-06T17:35:40.341Z,2.87
2018-08-06T17:38:07.852Z,2.47
2018-08-06T17:40:35.369Z,2.23
2018-08-06T17:43:02.974Z,2.27
2018-08-06T17:45:30.485Z,2.40
2018-08-06T17:47:57.913Z,2.40
2018-08-06T17:50:25.383Z,2.23
2018-08-06T17:52:53.362Z,7.40
2018-08-06T17:55:21.819Z,14.37
2018-08-06T17:57:49.283Z,15.20
2018-08-06T18:00:17.280Z,11.93
2018-08-06T18:02:44.779Z,11.77
2018-08-06T18:05:13.438Z,11.23
2018-08-06T18:07:41.735Z,10.27
2018-08-06T18:10:10.921Z,7.00
2018-08-06T18:12:38.398Z,6.60
2018-08-06T18:15:06.337Z,5.10
2018-08-06T18:17:34.255Z,6.07
2018-08-06T18:20:02.047Z,5.67
2018-08-06T18:22:30.058Z,4.80
2018-08-06T18:24:57.491Z,5.23
2018-08-06T18:27:25.223Z,5.70
2018-08-06T18:29:52.741Z,7.00
2018-08-06T18:32:20.618Z,5.83
2018-08-06T18:34:48.431Z,5.90
2018-08-06T18:37:15.975Z,6.27
2018-08-06T18:39:43.733Z,6.53
2018-08-06T18:42:11.221Z,5.37
2018-08-06T18:44:39.133Z,5.63
2018-08-06T18:47:06.621Z,4.63
2018-08-06T18:49:34.186Z,4.80
2018-08-06T18:52:02.156Z,4.60
2018-08-06T18:54:29.565Z,4.60
2018-08-06T18:56:57.340Z,4.27
2018-08-06T18:59:24.828Z,4.50
2018-08-06T19:01:52.317Z,4.77
2018-08-06T19:04:20.663Z,4.37
2018-08-06T19:06:48.199Z,3.90
2018-08-06T19:09:17.161Z,3.50
2018-08-06T19:11:45.566Z,3.27
2018-08-06T19:14:20.126Z,3.77
2018-08-06T19:16:49.251Z,3.10
2018-08-06T19:19:21.907Z,3.37
2018-08-06T19:21:49.968Z,3.53
2018-08-06T19:24:23.219Z,2.90
2018-08-06T19:26:50.930Z,12.47
2018-08-06T19:29:18.469Z,17.37
2018-08-06T19:31:46.200Z,13.60
2018-08-06T19:34:13.695Z,9.43
2018-08-06T19:36:46.917Z,6.97
2018-08-06T19:39:14.633Z,5.60
2018-08-06T19:41:42.259Z,5.53
2018-08-06T19:44:09.779Z,4.37
2018-08-06T19:46:37.845Z,4.13
2018-08-06T19:49:11.262Z,4.13
2018-08-06T19:51:39.038Z,3.30
2018-08-06T19:54:06.589Z,3.77
2018-08-06T19:56:34.457Z,3.60
2018-08-06T19:59:02.086Z,9.00
2018-08-06T20:01:29.857Z,21.23
2018-08-06T20:03:57.716Z,32.80
2018-08-06T20:06:25.389Z,21.53
2018-08-06T20:08:53.187Z,13.90
2018-08-06T20:11:20.759Z,9.27
2018-08-06T20:13:48.551Z,6.70
2018-08-06T20:16:15.951Z,6.33
2018-08-06T20:18:43.898Z,5.00
2018-08-06T20:21:11.428Z,4.17
2018-08-06T20:23:39.015Z,4.33
2018-08-06T20:26:06.901Z,4.00
2018-08-06T20:28:34.447Z,4.27
2018-08-06T20:31:02.421Z,4.33
2018-08-06T20:33:29.886Z,4.30
2018-08-06T20:35:57.747Z,4.37
2018-08-06T20:38:25.173Z,3.37
2018-08-06T20:40:52.698Z,4.20
2018-08-06T20:43:20.090Z,4.17
2018-08-06T20:45:47.533Z,4.17
2018-08-06T20:48:14.986Z,3.53
2018-08-06T20:50:42.564Z,4.30
2018-08-06T20:53:10.115Z,3.93
2018-08-06T20:55:37.771Z,4.27
2018-08-06T20:58:06.094Z,3.87
2018-08-06T21:00:33.534Z,3.60
2018-08-06T21:03:01.314Z,4.50
2018-08-06T21:05:28.688Z,3.50
2018-08-06T21:07:56.202Z,4.40
2018-08-06T21:10:23.759Z,3.70
2018-08-06T21:12:51.511Z,3.63
2018-08-06T21:15:19.101Z,4.17
2018-08-06T21:17:46.622Z,3.73
2018-08-06T21:20:15.306Z,3.57
2018-08-06T21:22:44.134Z,4.03
2018-08-06T21:25:12.051Z,3.93
2018-08-06T21:27:40.908Z,3.33
2018-08-06T21:30:10.917Z,3.77
2018-08-06T21:32:39.093Z,4.37
2018-08-06T21:35:06.817Z,4.23
2018-08-06T21:37:34.249Z,3.77
2018-08-06T21:40:01.810Z,3.63
2018-08-06T21:42:29.344Z,3.57
2018-08-06T21:44:56.872Z,3.73
2018-08-06T21:47:24.446Z,4.03
2018-08-06T21:49:51.989Z,3.67
2018-08-06T21:52:19.459Z,4.97
2018-08-06T21:54:46.909Z,4.10
2018-08-06T21:57:14.378Z,4.17
2018-08-06T21:59:41.940Z,4.80
2018-08-06T22:02:09.406Z,5.00
2018-08-06T22:04:36.888Z,4.67
2018-08-06T22:07:04.437Z,4.83
2018-08-06T22:09:31.851Z,4.40
2018-08-06T22:11:59.371Z,4.27
2018-08-06T22:14:26.945Z,4.87
2018-08-06T22:16:54.378Z,5.20
2018-08-06T22:19:21.892Z,4.30
2018-08-06T22:21:49.458Z,4.50
2018-08-06T22:24:17.002Z,4.70
2018-08-06T22:26:44.446Z,4.90
2018-08-06T22:29:11.929Z,4.40
2018-08-06T22:31:39.358Z,4.30
2018-08-06T22:34:06.830Z,4.60
2018-08-06T22:36:34.287Z,4.40
2018-08-06T22:39:01.898Z,5.40
2018-08-06T22:41:29.410Z,4.97
2018-08-06T22:43:56.873Z,5.37
2018-08-06T22:46:24.301Z,4.33
2018-08-06T22:48:51.890Z,4.73
2018-08-06T22:51:19.374Z,4.70
2018-08-06T22:53:46.930Z,4.23
2018-08-06T22:56:14.585Z,4.33
2018-08-06T22:58:42.250Z,5.40
2018-08-06T23:01:10.547Z,4.70
2018-08-06T23:03:38.018Z,5.33
2018-08-06T23:06:06.246Z,5.43
2018-08-06T23:08:33.806Z,5.90
2018-08-06T23:11:01.530Z,5.07
2018-08-06T23:13:28.985Z,6.13
2018-08-06T23:15:56.489Z,4.70
2018-08-06T23:18:23.950Z,5.83
2018-08-06T23:20:51.389Z,5.90
2018-08-06T23:23:18.891Z,5.17
2018-08-06T23:25:46.378Z,5.30
2018-08-06T23:28:13.820Z,5.97
2018-08-06T23:30:41.268Z,5.43
2018-08-06T23:33:08.871Z,4.67
2018-08-06T23:35:36.332Z,4.93
2018-08-06T23:38:04.050Z,6.10
2018-08-06T23:40:31.497Z,5.90
2018-08-06T23:42:58.895Z,5.97
2018-08-06T23:45:26.301Z,5.43
2018-08-06T23:47:53.811Z,5.40
2018-08-06T23:50:21.390Z,4.63
2018-08-06T23:52:48.937Z,5.30
2018-08-06T23:55:17.567Z,5.67
2018-08-06T23:57:45.107Z,5.33
